Aviation Digital Data Service (ADDS)

Output produced by METARs form (0950 UTC 25 February 2018)
found at http://aviationweather.gov/adds/metars/
 
KMIV 250822Z 2508/2606 09009KT 6SM -RA BR OVC012 
     TEMPO 2508/2512 4SM RA BR OVC007 
     FM251200 10007KT 2SM -RA BR OVC005 
     FM251800 23009KT P6SM OVC005 
     PROB30 2518/2522 4SM -RA 
     FM252200 26006KT P6SM OVC040 
     FM260000 29005KT P6SM OVC090